Time;durP1;ratioP1;P1;durP2;ratioP2;P2;SDS_P1;SDS_P2;PMS_P1;PMS_P2;Temp;Humidity;BMP_temperature;BMP_pressure;BME280_temperature;BME280_humidity;BME280_pressure;Samples;Min_cycle;Max_cycle;Signal;HPM_P1;HPM_P2
2022/12/14 00:00:44;;;;;;;12.40;7.07;;;-3.40;99.90;;;;;;5075477;28;20175;-75
2022/12/14 00:03:10;;;;;;;15.10;6.80;;;-3.40;99.90;;;;;;5057319;28;20175;-75
2022/12/14 00:05:36;;;;;;;9.83;6.10;;;-3.40;99.90;;;;;;5075177;28;20218;-75
2022/12/14 00:08:02;;;;;;;12.40;7.20;;;-3.40;99.90;;;;;;5075200;28;20205;-76
2022/12/14 00:10:27;;;;;;;11.57;6.50;;;-3.40;99.90;;;;;;5075225;28;20171;-74
2022/12/14 00:12:53;;;;;;;10.13;6.23;;;-3.40;99.90;;;;;;5057125;28;20183;-77
2022/12/14 00:15:18;;;;;;;10.90;6.30;;;-3.40;99.90;;;;;;5074949;28;20217;-75
2022/12/14 00:17:44;;;;;;;8.83;5.60;;;-3.40;99.90;;;;;;5075055;28;20661;-76
2022/12/14 00:20:10;;;;;;;9.83;5.97;;;-3.40;99.90;;;;;;5057056;28;20179;-74
2022/12/14 00:22:35;;;;;;;9.77;5.57;;;-3.40;99.90;;;;;;5074922;28;20171;-75
2022/12/14 00:25:01;;;;;;;14.17;6.70;;;-3.40;99.90;;;;;;5074847;28;20239;-75
2022/12/14 00:27:27;;;;;;;15.37;7.03;;;-3.40;99.90;;;;;;5074856;28;20544;-75
2022/12/14 00:29:53;;;;;;;10.33;6.47;;;-3.40;99.90;;;;;;5057132;28;20194;-75
2022/12/14 00:32:18;;;;;;;10.93;6.03;;;-3.40;99.90;;;;;;5073904;28;20175;-75
2022/12/14 00:34:44;;;;;;;14.17;7.07;;;-3.40;99.90;;;;;;5056702;28;20248;-75
2022/12/14 00:37:09;;;;;;;9.97;5.53;;;-3.40;99.90;;;;;;5074761;28;20174;-75
2022/12/14 00:39:35;;;;;;;9.23;5.70;;;-3.40;99.90;;;;;;5056643;28;20543;-75
2022/12/14 00:42:00;;;;;;;8.87;5.33;;;-3.40;99.90;;;;;;5074596;28;20171;-74
2022/12/14 00:44:26;;;;;;;11.10;6.00;;;-3.40;99.90;;;;;;5056640;28;20702;-75
2022/12/14 00:46:51;;;;;;;10.27;5.93;;;-3.40;99.90;;;;;;5074424;28;20749;-75
2022/12/14 00:49:17;;;;;;;12.60;6.03;;;-3.40;99.90;;;;;;5074363;28;20175;-75
2022/12/14 00:51:42;;;;;;;10.47;6.33;;;-3.30;99.90;;;;;;5074371;28;20171;-76
2022/12/14 00:54:08;;;;;;;11.30;6.40;;;-3.30;99.90;;;;;;5056323;28;20197;-76
2022/12/14 00:56:34;;;;;;;11.97;5.93;;;-3.30;99.90;;;;;;5074208;28;20246;-76
2022/12/14 00:58:59;;;;;;;8.80;5.17;;;-3.30;99.90;;;;;;5074312;28;20191;-76
2022/12/14 01:01:25;;;;;;;10.43;6.07;;;-3.20;99.90;;;;;;5074064;28;20174;-75
2022/12/14 01:04:15;;;;;;;10.83;5.50;;;-3.40;99.90;;;;;;5074143;28;20230;-76
2022/12/14 01:06:36;;;;;;;11.07;6.37;;;-3.30;99.90;;;;;;5073984;28;20203;-76
2022/12/14 01:09:02;;;;;;;9.77;6.43;;;-3.40;99.90;;;;;;5056201;28;20296;-75
2022/12/14 01:11:28;;;;;;;8.27;6.33;;;-3.30;99.90;;;;;;5056022;28;20316;-75
2022/12/14 01:13:54;;;;;;;10.40;6.17;;;-3.30;99.90;;;;;;5055959;28;20859;-76
2022/12/14 01:16:20;;;;;;;13.07;6.63;;;-3.30;99.90;;;;;;5073773;28;20203;-75
2022/12/14 01:18:46;;;;;;;10.87;5.57;;;-3.30;99.90;;;;;;5056000;28;20171;-76
2022/12/14 01:21:15;;;;;;;12.40;6.63;;;-3.30;99.90;;;;;;5073793;28;20172;-75
2022/12/14 01:23:42;;;;;;;8.20;5.80;;;-3.30;99.90;;;;;;5074001;28;20178;-76
2022/12/14 01:26:08;;;;;;;12.67;6.63;;;-3.30;99.90;;;;;;5055775;28;20220;-76
2022/12/14 01:28:34;;;;;;;12.53;6.67;;;-3.30;99.90;;;;;;5073703;28;20664;-76
2022/12/14 01:31:11;;;;;;;11.07;6.37;;;-3.30;99.90;;;;;;5074282;28;20175;-76
2022/12/14 01:33:37;;;;;;;9.77;5.23;;;-3.30;99.90;;;;;;5074043;28;20165;-76
2022/12/14 01:36:08;;;;;;;10.73;6.10;;;-3.30;99.90;;;;;;5073932;28;20203;-76
2022/12/14 01:38:34;;;;;;;9.70;5.90;;;-3.30;99.90;;;;;;5056614;28;20261;-75
2022/12/14 01:41:00;;;;;;;12.57;5.90;;;-3.40;99.90;;;;;;5073562;28;20194;-75
2022/12/14 01:43:47;;;;;;;13.53;6.47;;;-3.40;99.90;;;;;;5073327;28;20664;-75
2022/12/14 01:46:16;;;;;;;10.07;6.23;;;-3.40;99.90;;;;;;5073536;28;20677;-75
2022/12/14 01:48:42;;;;;;;10.07;5.77;;;-3.50;99.90;;;;;;5073614;28;20179;-75
2022/12/14 01:51:08;;;;;;;11.03;5.90;;;-3.50;99.90;;;;;;5073249;28;20178;-75
2022/12/14 01:53:34;;;;;;;9.83;5.37;;;-3.60;99.90;;;;;;5073313;28;20181;-75
2022/12/14 01:55:59;;;;;;;12.07;6.67;;;-3.60;99.90;;;;;;5073019;28;20209;-75
2022/12/14 01:58:27;;;;;;;13.70;6.40;;;-3.60;99.90;;;;;;5073081;28;20244;-75
2022/12/14 02:00:57;;;;;;;13.03;6.40;;;-3.70;99.90;;;;;;5073146;28;20246;-75
2022/12/14 02:03:51;;;;;;;11.53;5.67;;;-3.70;99.90;;;;;;5073297;28;20564;-77
2022/12/14 02:06:25;;;;;;;9.77;5.23;;;-3.70;99.90;;;;;;5072323;28;20203;-75
2022/12/14 02:08:52;;;;;;;11.93;6.30;;;-3.80;99.90;;;;;;5073287;28;20254;-75
2022/12/14 02:11:30;;;;;;;8.77;5.27;;;-3.80;99.90;;;;;;5072887;28;20186;-76
2022/12/14 02:13:55;;;;;;;10.00;5.63;;;-3.90;99.90;;;;;;5072920;28;20163;-75
2022/12/14 02:16:21;;;;;;;9.77;5.40;;;-3.90;99.90;;;;;;5072796;28;20206;-75
2022/12/14 02:18:46;;;;;;;10.03;5.17;;;-3.90;99.90;;;;;;5054820;28;20171;-75
2022/12/14 02:21:35;;;;;;;10.70;5.93;;;-3.90;99.90;;;;;;5073012;28;20177;-74
2022/12/14 02:24:25;;;;;;;10.37;6.07;;;-3.90;99.90;;;;;;5054861;28;20174;-75
2022/12/14 02:27:06;;;;;;;11.23;5.97;;;-4.00;99.90;;;;;;5072739;28;20282;-75
2022/12/14 02:30:03;;;;;;;8.93;5.20;;;-4.00;99.90;;;;;;5054731;28;20163;-75
2022/12/14 02:32:38;;;;;;;10.97;5.17;;;-4.00;99.90;;;;;;5054970;28;20544;-75
2022/12/14 02:35:22;;;;;;;10.93;5.13;;;-4.00;99.90;;;;;;5072707;28;20205;-76
2022/12/14 02:38:05;;;;;;;7.93;4.87;;;-4.00;99.90;;;;;;5072903;28;20159;-75
2022/12/14 02:40:56;;;;;;;8.77;4.63;;;-4.10;99.90;;;;;;5072884;28;20634;-75
2022/12/14 02:43:38;;;;;;;8.83;5.40;;;-4.10;99.90;;;;;;5054610;28;20201;-75
2022/12/14 02:46:32;;;;;;;8.73;4.50;;;-4.10;99.90;;;;;;5072577;28;20695;-77
2022/12/14 02:49:13;;;;;;;10.00;4.90;;;-4.10;99.90;;;;;;5072669;28;20173;-75
2022/12/14 02:52:12;;;;;;;8.27;4.80;;;-4.10;99.90;;;;;;5072835;28;20185;-75
2022/12/14 02:54:46;;;;;;;9.47;4.70;;;-4.10;99.90;;;;;;5072769;28;20697;-75
2022/12/14 02:57:27;;;;;;;9.77;5.30;;;-4.10;99.90;;;;;;5076529;28;20163;-75
2022/12/14 02:59:57;;;;;;;10.87;5.23;;;-4.10;99.90;;;;;;5076528;28;20637;-75
2022/12/14 03:02:23;;;;;;;7.30;4.13;;;-4.10;99.90;;;;;;5076888;28;20163;-75
2022/12/14 03:04:49;;;;;;;9.07;4.90;;;-4.10;99.90;;;;;;5058337;28;20186;-75
2022/12/14 03:07:45;;;;;;;10.80;5.73;;;-4.10;99.90;;;;;;5076328;28;20542;-75
2022/12/14 03:10:34;;;;;;;12.87;4.57;;;-4.20;99.90;;;;;;5058324;28;20160;-74
2022/12/14 03:13:13;;;;;;;8.33;4.60;;;-4.20;99.90;;;;;;5058225;28;20555;-75
2022/12/14 03:15:42;;;;;;;8.63;4.53;;;-4.20;99.90;;;;;;5076068;28;20227;-75
2022/12/14 03:18:11;;;;;;;8.50;4.90;;;-4.20;99.90;;;;;;5076396;28;20305;-75
2022/12/14 03:20:38;;;;;;;9.10;5.20;;;-4.20;99.90;;;;;;5057972;28;20662;-74
2022/12/14 03:23:27;;;;;;;9.47;4.97;;;-4.10;99.90;;;;;;5075934;28;20170;-75
2022/12/14 03:26:01;;;;;;;8.97;5.33;;;-4.10;99.90;;;;;;5075812;28;20244;-75
2022/12/14 03:28:41;;;;;;;6.00;4.10;;;-4.10;99.90;;;;;;5075888;28;20166;-75
2022/12/14 03:31:31;;;;;;;8.37;4.33;;;-4.20;99.90;;;;;;5076042;28;20192;-75
2022/12/14 03:33:59;;;;;;;8.50;4.77;;;-4.10;99.90;;;;;;5057827;28;20201;-75
2022/12/14 03:36:52;;;;;;;7.30;4.27;;;-4.20;99.90;;;;;;5057655;28;20205;-75
2022/12/14 03:39:23;;;;;;;7.10;4.10;;;-4.20;99.90;;;;;;5075953;28;20262;-75
2022/12/14 03:42:27;;;;;;;6.87;4.20;;;-4.20;99.90;;;;;;5075867;28;20159;-75
2022/12/14 03:45:03;;;;;;;9.27;4.63;;;-4.20;99.90;;;;;;5057565;28;20195;-75
2022/12/14 03:47:49;;;;;;;8.57;5.07;;;-4.20;99.90;;;;;;5075679;28;20166;-75
2022/12/14 03:50:31;;;;;;;8.93;4.83;;;-4.20;99.90;;;;;;5057514;28;20228;-75
2022/12/14 03:53:07;;;;;;;10.40;4.17;;;-4.20;99.90;;;;;;5075930;28;20159;-75
2022/12/14 03:55:53;;;;;;;7.30;3.97;;;-4.10;99.90;;;;;;5075654;28;20293;-75
2022/12/14 03:58:40;;;;;;;10.97;5.20;;;-4.10;99.90;;;;;;5057482;28;20532;-75
2022/12/14 04:01:12;;;;;;;7.13;4.20;;;-4.10;99.90;;;;;;5075564;28;20182;-75
2022/12/14 04:03:48;;;;;;;10.07;5.43;;;-4.10;99.90;;;;;;5075621;28;20159;-75
2022/12/14 04:06:24;;;;;;;9.37;4.70;;;-4.10;99.90;;;;;;5074276;28;20194;-75
2022/12/14 04:09:26;;;;;;;11.13;4.37;;;-4.00;99.90;;;;;;5075243;28;20203;-75
2022/12/14 04:20:07;;;;;;;7.93;4.33;;;-4.00;99.90;;;;;;5095160;28;20185;-77
2022/12/14 04:22:39;;;;;;;5.80;3.70;;;-4.00;99.90;;;;;;5095377;28;20202;-77
2022/12/14 04:31:09;;;;;;;5.57;3.80;;;-3.90;99.90;;;;;;5095382;28;20197;-77
2022/12/14 04:33:47;;;;;;;8.20;4.27;;;-3.90;99.90;;;;;;5094672;28;20270;-77
2022/12/14 04:36:36;;;;;;;6.77;3.90;;;-3.90;99.90;;;;;;5095125;28;20178;-77
2022/12/14 04:39:07;;;;;;;7.93;4.00;;;-3.90;99.90;;;;;;5094221;28;20178;-77
2022/12/14 04:41:38;;;;;;;8.33;4.40;;;-3.90;99.90;;;;;;5094794;28;20151;-77
2022/12/14 04:44:18;;;;;;;6.80;3.90;;;-3.90;99.90;;;;;;5093257;28;20582;-77
2022/12/14 04:46:45;;;;;;;11.83;4.30;;;-3.90;99.90;;;;;;5093453;28;20627;-77
2022/12/14 04:49:31;;;;;;;5.67;4.00;;;-3.80;99.90;;;;;;5094621;28;20219;-76
2022/12/14 04:52:06;;;;;;;4.73;3.33;;;-3.80;99.90;;;;;;5093197;28;20762;-77
2022/12/14 04:54:43;;;;;;;8.60;4.00;;;-3.80;99.90;;;;;;5094257;28;20198;-76
2022/12/14 04:57:32;;;;;;;8.90;4.23;;;-3.80;99.90;;;;;;5094420;28;20166;-77
2022/12/14 04:59:59;;;;;;;7.10;3.80;;;-3.80;99.90;;;;;;5094378;28;20501;-77
2022/12/14 05:02:47;;;;;;;7.13;3.67;;;-3.80;99.90;;;;;;5092802;28;20232;-77
2022/12/14 05:05:29;;;;;;;5.00;3.53;;;-3.80;99.90;;;;;;5094074;28;20178;-77
2022/12/14 05:08:10;;;;;;;9.60;4.47;;;-3.80;99.90;;;;;;5092951;28;20171;-77
2022/12/14 05:10:36;;;;;;;6.90;3.87;;;-3.80;99.90;;;;;;5092965;28;20265;-77
2022/12/14 05:13:10;;;;;;;11.97;5.23;;;-3.70;99.90;;;;;;5093883;28;20277;-77
2022/12/14 05:15:42;;;;;;;6.57;4.50;;;-3.70;99.90;;;;;;5092619;28;20213;-77
2022/12/14 05:18:09;;;;;;;5.90;3.80;;;-3.70;99.90;;;;;;5093584;28;20186;-77
2022/12/14 05:20:34;;;;;;;6.80;4.03;;;-3.70;99.90;;;;;;5093887;28;20167;-77
2022/12/14 05:23:00;;;;;;;7.43;4.23;;;-3.60;99.90;;;;;;5093850;28;20189;-77
2022/12/14 05:25:25;;;;;;;9.83;4.07;;;-3.70;99.90;;;;;;5093863;28;20175;-77
2022/12/14 05:27:51;;;;;;;11.53;4.30;;;-3.60;99.90;;;;;;5092426;28;20174;-77
2022/12/14 05:30:16;;;;;;;7.13;4.53;;;-3.60;99.90;;;;;;5093893;28;20204;-77
2022/12/14 05:32:42;;;;;;;6.40;4.43;;;-3.60;99.90;;;;;;5092453;28;20197;-77
2022/12/14 05:35:12;;;;;;;6.47;3.87;;;-3.60;99.90;;;;;;5092218;28;20190;-77
2022/12/14 05:37:37;;;;;;;6.07;4.17;;;-3.60;99.90;;;;;;5093851;28;20166;-77
2022/12/14 05:40:03;;;;;;;4.80;3.40;;;-3.60;99.90;;;;;;5092339;28;20182;-77
2022/12/14 05:42:30;;;;;;;5.67;3.87;;;-3.50;99.90;;;;;;5093286;28;20571;-77
2022/12/14 05:44:55;;;;;;;5.73;3.77;;;-3.60;99.90;;;;;;5093764;28;20284;-77
2022/12/14 05:47:21;;;;;;;10.13;4.33;;;-3.60;99.90;;;;;;5093850;28;20651;-77
2022/12/14 05:49:47;;;;;;;7.20;4.30;;;-3.60;99.90;;;;;;5091977;28;20181;-77
2022/12/14 05:52:12;;;;;;;9.80;3.97;;;-3.60;99.90;;;;;;5092379;28;20190;-76
2022/12/14 05:54:38;;;;;;;7.90;4.17;;;-3.60;99.90;;;;;;5093873;28;20194;-77
2022/12/14 05:57:05;;;;;;;7.23;4.07;;;-3.60;99.90;;;;;;5093977;28;20205;-77
2022/12/14 05:59:31;;;;;;;7.93;4.00;;;-3.60;99.90;;;;;;5091867;28;20170;-77
2022/12/14 06:01:57;;;;;;;7.40;3.77;;;-3.50;99.90;;;;;;5091769;28;20234;-77
2022/12/14 06:04:24;;;;;;;6.03;3.50;;;-3.60;99.90;;;;;;5093277;28;20178;-77
2022/12/14 06:06:49;;;;;;;6.83;4.03;;;-3.50;99.90;;;;;;5093421;28;20690;-76
2022/12/14 06:09:16;;;;;;;6.60;4.20;;;-3.50;99.90;;;;;;5092112;28;20212;-76
2022/12/14 06:11:43;;;;;;;8.33;4.57;;;-3.50;99.90;;;;;;5093047;28;20253;-75
2022/12/14 06:14:09;;;;;;;6.47;3.90;;;-3.50;99.90;;;;;;5092799;28;20201;-76
2022/12/14 06:16:38;;;;;;;6.80;4.63;;;-3.50;99.90;;;;;;5092896;28;20237;-76
2022/12/14 06:19:04;;;;;;;7.17;4.30;;;-3.50;99.90;;;;;;5093107;28;20655;-78
2022/12/14 06:21:33;;;;;;;8.00;4.40;;;-3.50;99.90;;;;;;5094687;28;20185;-79
2022/12/14 06:23:59;;;;;;;7.63;3.57;;;-3.50;99.90;;;;;;5097045;28;20214;-79
2022/12/14 06:26:26;;;;;;;6.93;4.20;;;-3.50;99.90;;;;;;5095125;28;20604;-79
2022/12/14 06:28:52;;;;;;;7.70;4.00;;;-3.50;99.90;;;;;;5096709;28;20182;-80
2022/12/14 06:31:24;;;;;;;8.47;4.50;;;-3.40;99.90;;;;;;5104527;28;20192;-79
2022/12/14 06:33:50;;;;;;;8.00;3.40;;;-3.40;99.90;;;;;;5091961;28;20320;-79
2022/12/14 06:36:30;;;;;;;4.77;3.53;;;-3.40;99.90;;;;;;5093151;28;20233;-79
2022/12/14 06:39:00;;;;;;;6.90;3.90;;;-3.40;99.90;;;;;;5094013;28;20612;-79
2022/12/14 06:41:26;;;;;;;5.17;3.03;;;-3.40;99.90;;;;;;5092268;28;20639;-79
2022/12/14 06:43:52;;;;;;;10.70;4.23;;;-3.30;99.90;;;;;;5092276;28;20194;-79
2022/12/14 06:46:20;;;;;;;5.10;3.50;;;-3.40;99.90;;;;;;5092801;28;20722;-78
2022/12/14 06:48:50;;;;;;;6.10;3.93;;;-3.40;99.90;;;;;;5093086;28;20182;-79
2022/12/14 06:51:16;;;;;;;9.67;4.60;;;-3.30;99.90;;;;;;5093859;28;20189;-79
2022/12/14 06:53:42;;;;;;;9.93;3.67;;;-3.40;99.90;;;;;;5092881;28;20194;-80
2022/12/14 06:56:12;;;;;;;5.97;3.90;;;-3.40;99.90;;;;;;5095253;28;20205;-80
2022/12/14 06:58:38;;;;;;;5.43;3.83;;;-3.30;99.90;;;;;;5088148;28;20183;-81
2022/12/14 07:01:08;;;;;;;5.90;3.83;;;-3.30;99.90;;;;;;5091542;28;20181;-81
2022/12/14 07:03:35;;;;;;;8.53;3.77;;;-3.30;99.90;;;;;;5090871;28;20247;-82
2022/12/14 07:06:02;;;;;;;6.50;3.73;;;-3.30;99.90;;;;;;5092395;28;20171;-79
2022/12/14 07:08:30;;;;;;;5.73;3.50;;;-3.30;99.90;;;;;;5092605;28;20647;-78
2022/12/14 07:10:55;;;;;;;7.13;3.73;;;-3.20;99.90;;;;;;5092359;28;20174;-77
2022/12/14 07:13:21;;;;;;;5.47;3.33;;;-3.20;99.90;;;;;;5092697;28;20636;-80
2022/12/14 07:15:51;;;;;;;7.33;3.60;;;-3.30;99.90;;;;;;5092464;28;20280;-79
2022/12/14 07:18:17;;;;;;;5.23;3.70;;;-3.20;99.90;;;;;;5093896;28;20171;-79
2022/12/14 07:20:43;;;;;;;7.67;3.80;;;-3.20;99.90;;;;;;5093994;28;20167;-79
2022/12/14 07:23:09;;;;;;;7.73;4.47;;;-3.20;99.90;;;;;;5093757;28;20261;-79
2022/12/14 07:25:35;;;;;;;5.33;3.43;;;-3.20;99.90;;;;;;5092589;28;20172;-79
2022/12/14 07:28:00;;;;;;;8.70;3.97;;;-3.20;99.90;;;;;;5093719;28;20174;-79
2022/12/14 07:30:26;;;;;;;8.10;4.40;;;-3.20;99.90;;;;;;5094499;28;20668;-79
2022/12/14 07:32:51;;;;;;;10.37;4.17;;;-3.20;99.90;;;;;;5092587;28;20278;-79
2022/12/14 07:35:17;;;;;;;6.87;4.10;;;-3.20;99.90;;;;;;5092245;28;20202;-79
2022/12/14 07:37:42;;;;;;;6.33;4.00;;;-3.20;99.90;;;;;;5093644;28;20241;-79
2022/12/14 07:40:08;;;;;;;5.60;3.80;;;-3.20;99.90;;;;;;5098419;28;20174;-79
2022/12/14 07:42:34;;;;;;;8.53;4.10;;;-3.20;99.90;;;;;;5103536;28;20206;-79
2022/12/14 07:45:00;;;;;;;4.97;3.80;;;-3.20;99.90;;;;;;5098985;28;20524;-79
2022/12/14 07:47:28;;;;;;;7.83;3.47;;;-3.10;99.90;;;;;;5097665;28;20174;-80
2022/12/14 07:49:54;;;;;;;6.73;4.20;;;-3.10;99.90;;;;;;5097277;28;20184;-80
2022/12/14 07:52:19;;;;;;;5.30;3.50;;;-3.10;99.90;;;;;;5095874;28;20261;-79
2022/12/14 07:54:45;;;;;;;5.70;4.03;;;-3.10;99.90;;;;;;5096103;28;20205;-79
2022/12/14 07:57:10;;;;;;;6.63;4.00;;;-3.00;99.90;;;;;;5096086;28;20175;-79
2022/12/14 07:59:36;;;;;;;7.17;3.80;;;-3.10;99.90;;;;;;5096290;28;20185;-80
2022/12/14 08:02:02;;;;;;;7.30;4.00;;;-3.10;99.90;;;;;;5097617;28;20220;-78
2022/12/14 08:04:27;;;;;;;12.30;4.93;;;-3.10;99.90;;;;;;5095918;28;20182;-79
2022/12/14 08:06:53;;;;;;;8.63;3.53;;;-3.00;99.90;;;;;;5095896;28;20611;-79
2022/12/14 08:09:18;;;;;;;6.07;3.60;;;-3.00;99.90;;;;;;5095877;28;20223;-79
2022/12/14 08:11:45;;;;;;;7.33;4.27;;;-3.00;99.90;;;;;;5096507;28;20178;-79
2022/12/14 08:14:16;;;;;;;5.10;3.53;;;-3.00;99.90;;;;;;5095755;28;20210;-78
2022/12/14 08:16:43;;;;;;;6.83;3.87;;;-3.00;99.90;;;;;;5097651;28;20284;-79
2022/12/14 08:19:10;;;;;;;6.80;4.43;;;-3.00;99.90;;;;;;5097451;28;20195;-79
2022/12/14 08:21:35;;;;;;;6.00;3.97;;;-2.90;99.90;;;;;;5097088;28;20632;-80
2022/12/14 08:24:01;;;;;;;6.20;4.20;;;-2.90;99.90;;;;;;5097404;28;20247;-80
2022/12/14 08:26:26;;;;;;;6.53;4.07;;;-2.90;99.90;;;;;;5098168;28;20228;-79
2022/12/14 08:28:54;;;;;;;7.20;4.17;;;-2.80;99.90;;;;;;5098026;28;20547;-79
2022/12/14 08:31:22;;;;;;;6.40;4.00;;;-2.80;99.90;;;;;;5098446;28;20181;-80
2022/12/14 08:33:48;;;;;;;6.77;3.87;;;-2.80;99.90;;;;;;5102004;28;20255;-80
2022/12/14 08:36:17;;;;;;;8.63;3.87;;;-2.70;99.90;;;;;;5103528;28;20210;-80
2022/12/14 08:38:43;;;;;;;9.63;4.27;;;-2.70;99.90;;;;;;5095754;28;20174;-80
2022/12/14 08:41:13;;;;;;;7.83;4.03;;;-2.70;99.90;;;;;;5096070;28;20183;-80
2022/12/14 08:43:39;;;;;;;7.67;4.10;;;-2.70;99.90;;;;;;5096830;28;20195;-80
2022/12/14 08:46:06;;;;;;;8.00;3.90;;;-2.60;99.90;;;;;;5097576;28;20231;-80
2022/12/14 08:48:32;;;;;;;7.97;4.20;;;-2.60;99.90;;;;;;5097329;28;20217;-80
2022/12/14 08:51:06;;;;;;;6.97;3.97;;;-2.60;99.90;;;;;;5098168;28;20170;-79
2022/12/14 08:53:32;;;;;;;6.07;3.63;;;-2.50;99.90;;;;;;5095627;28;20223;-79
2022/12/14 08:55:57;;;;;;;11.40;4.03;;;-2.50;99.90;;;;;;5098544;28;20215;-80
2022/12/14 08:58:23;;;;;;;7.07;4.40;;;-2.50;99.90;;;;;;5113609;28;20167;-79
2022/12/14 09:00:49;;;;;;;6.27;3.40;;;-2.40;99.90;;;;;;5113065;28;20182;-79
2022/12/14 09:03:15;;;;;;;11.20;4.10;;;-2.40;99.90;;;;;;5097609;28;20211;-79
2022/12/14 09:05:41;;;;;;;9.13;4.43;;;-2.40;99.90;;;;;;5094273;28;20670;-79
2022/12/14 09:08:06;;;;;;;6.77;4.10;;;-2.40;99.90;;;;;;5095580;28;20179;-79
2022/12/14 09:10:32;;;;;;;11.83;4.30;;;-2.40;99.90;;;;;;5095264;28;20232;-78
2022/12/14 09:12:57;;;;;;;5.63;3.77;;;-2.30;99.90;;;;;;5095699;28;20210;-78
2022/12/14 09:15:23;;;;;;;12.07;4.77;;;-2.30;99.90;;;;;;5094947;28;20209;-80
2022/12/14 09:17:49;;;;;;;15.13;4.33;;;-2.30;99.90;;;;;;5093811;28;20209;-80
2022/12/14 09:20:15;;;;;;;10.30;4.03;;;-2.30;99.90;;;;;;5095219;28;20177;-79
2022/12/14 09:22:41;;;;;;;7.43;4.37;;;-2.20;99.90;;;;;;5095514;28;20197;-79
2022/12/14 09:25:07;;;;;;;7.40;4.20;;;-2.20;99.90;;;;;;5094881;28;20180;-80
2022/12/14 09:27:33;;;;;;;8.97;3.70;;;-2.10;99.90;;;;;;5094993;28;20184;-80
2022/12/14 09:29:58;;;;;;;9.30;4.57;;;-2.10;99.90;;;;;;5095355;28;20202;-80
2022/12/14 09:32:24;;;;;;;8.33;4.40;;;-2.10;99.90;;;;;;5096377;28;20215;-79
2022/12/14 09:34:49;;;;;;;6.20;4.23;;;-2.00;99.90;;;;;;5096083;28;20708;-80
2022/12/14 09:37:15;;;;;;;8.63;4.37;;;-2.00;99.90;;;;;;5096086;28;20163;-80
2022/12/14 09:39:41;;;;;;;7.70;3.93;;;-2.00;99.90;;;;;;5095764;28;20172;-80
2022/12/14 09:42:58;;;;;;;11.60;4.27;;;-1.90;99.90;;;;;;5096189;28;20590;-80
2022/12/14 09:45:38;;;;;;;6.73;3.67;;;-1.90;99.90;;;;;;5061920;28;20199;-80
2022/12/14 09:48:19;;;;;;;7.23;4.40;;;-1.90;99.90;;;;;;5096654;28;20159;-80
2022/12/14 09:50:49;;;;;;;6.93;4.03;;;-1.90;99.90;;;;;;5094839;28;20175;-80
2022/12/14 09:53:17;;;;;;;6.20;4.10;;;-1.90;99.90;;;;;;5093985;28;20597;-80
2022/12/14 09:55:46;;;;;;;9.10;3.87;;;-1.80;99.90;;;;;;5094950;28;20211;-80
2022/12/14 09:58:26;;;;;;;6.00;3.73;;;-1.80;99.90;;;;;;5095493;28;20637;-80
2022/12/14 10:01:34;;;;;;;5.97;4.40;;;-1.80;99.90;;;;;;5096097;28;20288;-80
2022/12/14 10:04:36;;;;;;;6.87;4.33;;;-1.80;99.90;;;;;;5095299;28;20204;-80
2022/12/14 10:07:13;;;;;;;7.00;4.00;;;-1.90;99.90;;;;;;5081741;28;20236;-80
2022/12/14 10:09:53;;;;;;;8.87;4.30;;;-1.80;99.90;;;;;;5096145;28;20163;-80
2022/12/14 10:12:40;;;;;;;6.37;4.00;;;-1.90;99.90;;;;;;5095250;28;20265;-80
2022/12/14 10:15:14;;;;;;;8.60;4.47;;;-1.80;99.90;;;;;;5094584;28;20215;-80
2022/12/14 10:18:14;;;;;;;6.60;4.60;;;-1.90;99.90;;;;;;5104341;22;20269;-96
2022/12/14 10:21:13;;;;;;;6.70;3.47;;;-1.90;99.90;;;;;;5099869;28;20164;-96
2022/12/14 10:23:55;;;;;;;6.20;4.10;;;-1.90;99.90;;;;;;5088524;28;20144;-95
2022/12/14 10:26:25;;;;;;;9.87;4.63;;;-1.80;99.90;;;;;;5099832;28;20209;-95
2022/12/14 10:29:02;;;;;;;9.43;4.60;;;-1.90;99.90;;;;;;5099762;28;20145;-95
2022/12/14 10:32:03;;;;;;;6.20;3.90;;;-1.70;99.90;;;;;;5099768;28;20137;-96
2022/12/14 10:34:31;;;;;;;6.53;4.03;;;-1.80;99.90;;;;;;5094545;28;20144;-96
2022/12/14 10:37:06;;;;;;;5.87;4.20;;;-1.70;99.90;;;;;;5099655;28;20145;-96
2022/12/14 10:39:49;;;;;;;7.63;4.60;;;-1.70;99.90;;;;;;5099710;28;20136;-96
2022/12/14 10:42:57;;;;;;;9.30;4.07;;;-1.70;99.90;;;;;;5099643;28;20127;-96
2022/12/14 10:45:55;;;;;;;7.60;4.93;;;-1.60;99.90;;;;;;5099557;28;20161;-95
2022/12/14 10:48:39;;;;;;;6.50;3.83;;;-1.50;99.90;;;;;;5099530;28;20137;-95
2022/12/14 10:51:16;;;;;;;6.63;4.03;;;-1.50;99.90;;;;;;5099568;28;20132;-95
2022/12/14 10:53:49;;;;;;;9.53;5.33;;;-1.40;99.90;;;;;;5099582;28;20297;-95
2022/12/14 10:56:28;;;;;;;7.17;4.87;;;-1.30;99.90;;;;;;5099287;28;20185;-95
2022/12/14 10:59:27;;;;;;;8.93;5.33;;;-1.30;99.90;;;;;;5099518;28;20137;-95
2022/12/14 11:02:12;;;;;;;14.63;5.53;;;-1.20;99.90;;;;;;5099517;28;20144;-95
2022/12/14 11:04:58;;;;;;;10.73;5.80;;;-1.10;99.90;;;;;;5099464;28;20205;-95
2022/12/14 11:07:37;;;;;;;9.10;5.47;;;-1.20;99.90;;;;;;5099464;28;20133;-95
2022/12/14 11:10:22;;;;;;;10.43;5.80;;;-1.00;99.90;;;;;;5099477;28;20167;-94
2022/12/14 11:13:15;;;;;;;15.00;5.20;;;-1.00;99.90;;;;;;5099297;28;20139;-95
2022/12/14 11:15:44;;;;;;;11.90;6.00;;;-0.90;99.90;;;;;;5099553;28;20176;-95
2022/12/14 11:18:16;;;;;;;12.80;5.97;;;-0.90;99.90;;;;;;5103077;28;20155;-96
2022/12/14 11:20:53;;;;;;;10.13;5.53;;;-0.80;99.90;;;;;;5103147;28;20156;-95
2022/12/14 11:23:24;;;;;;;8.93;5.40;;;-0.80;99.90;;;;;;5103109;28;20134;-96
2022/12/14 11:25:54;;;;;;;10.77;5.17;;;-0.70;99.90;;;;;;5103003;28;20172;-95
2022/12/14 11:28:25;;;;;;;7.47;4.63;;;-0.70;99.90;;;;;;5102929;28;20183;-96
2022/12/14 11:31:10;;;;;;;13.03;5.57;;;-0.60;99.90;;;;;;5102934;28;20169;-95
2022/12/14 11:33:50;;;;;;;14.53;6.13;;;-0.60;99.90;;;;;;5102875;28;20168;-96
2022/12/14 11:36:45;;;;;;;10.07;5.23;;;-0.60;99.90;;;;;;5102710;28;20213;-96
2022/12/14 11:39:13;;;;;;;11.47;5.23;;;-0.50;99.90;;;;;;5102827;28;20201;-95
2022/12/14 11:41:45;;;;;;;10.83;5.43;;;-0.50;99.90;;;;;;5102707;28;20166;-95
2022/12/14 11:44:44;;;;;;;6.77;4.97;;;-0.40;99.90;;;;;;5102725;28;20141;-96
2022/12/14 11:47:28;;;;;;;8.10;4.93;;;-0.30;99.90;;;;;;5059698;28;20158;-96
2022/12/14 11:49:56;;;;;;;11.23;5.17;;;-0.20;99.90;;;;;;5102536;28;20146;-96
2022/12/14 11:52:37;;;;;;;10.93;5.73;;;-0.30;99.90;;;;;;5102576;28;20205;-96
2022/12/14 11:55:10;;;;;;;11.47;4.90;;;-0.20;99.90;;;;;;5102342;28;20165;-96
2022/12/14 11:57:57;;;;;;;7.77;5.23;;;-0.20;99.90;;;;;;5102365;28;20142;-96
2022/12/14 12:00:27;;;;;;;9.47;5.20;;;-0.20;99.90;;;;;;5102242;28;20146;-96
2022/12/14 12:03:05;;;;;;;7.37;5.50;;;-0.20;99.90;;;;;;5102333;28;20321;-96
2022/12/14 12:05:33;;;;;;;7.77;4.43;;;-0.10;99.90;;;;;;5102251;28;20146;-96
2022/12/14 12:08:01;;;;;;;9.57;5.50;;;-0.10;99.90;;;;;;5102225;28;20142;-96
2022/12/14 12:10:46;;;;;;;10.40;5.10;;;0.00;99.90;;;;;;5102185;28;20143;-96
2022/12/14 12:13:44;;;;;;;8.20;5.70;;;-0.30;99.90;;;;;;5102177;28;20134;-96
2022/12/14 12:16:10;;;;;;;12.27;5.13;;;-0.20;99.90;;;;;;5101805;28;20216;-96
2022/12/14 12:18:45;;;;;;;7.67;5.67;;;-0.20;99.90;;;;;;5102054;28;20145;-96
2022/12/14 12:21:33;;;;;;;6.80;5.10;;;-0.20;99.90;;;;;;5102091;28;20130;-96
2022/12/14 12:24:16;;;;;;;7.20;4.67;;;-0.20;99.90;;;;;;5100979;28;20146;-96
2022/12/14 12:26:50;;;;;;;11.80;5.00;;;-0.10;99.90;;;;;;5101706;28;20217;-96
2022/12/14 12:29:18;;;;;;;7.93;4.90;;;0.00;99.90;;;;;;5100977;28;20149;-96
2022/12/14 12:32:25;;;;;;;7.53;4.60;;;-0.10;99.90;;;;;;5101726;28;20142;-96
2022/12/14 12:35:08;;;;;;;7.87;4.80;;;0.00;99.90;;;;;;5101493;28;20153;-96
2022/12/14 12:37:47;;;;;;;8.13;5.23;;;0.00;99.90;;;;;;5101700;28;20135;-96
2022/12/14 12:40:26;;;;;;;9.50;5.07;;;0.00;99.90;;;;;;5101678;28;20245;-96
2022/12/14 12:43:27;;;;;;;10.00;4.97;;;0.10;99.90;;;;;;5101604;28;20131;-96
2022/12/14 12:46:44;;;;;;;8.67;5.10;;;0.10;99.90;;;;;;5101455;28;20150;-96
2022/12/14 12:49:45;;;;;;;9.47;5.00;;;0.20;99.90;;;;;;5024635;28;20205;-95
2022/12/14 12:52:33;;;;;;;7.07;4.73;;;0.20;99.90;;;;;;5024618;28;20136;-96
2022/12/14 12:55:06;;;;;;;6.00;4.67;;;0.30;1.00;;;;;;5091667;28;20175;-96
2022/12/14 12:57:39;;;;;;;10.47;4.87;;;0.30;99.90;;;;;;5101140;28;20138;-96
2022/12/14 13:00:16;;;;;;;9.97;5.30;;;0.40;99.90;;;;;;5101232;28;20131;-96
2022/12/14 13:02:59;;;;;;;9.53;5.10;;;0.40;1.00;;;;;;5101228;28;20138;-96
2022/12/14 13:05:28;;;;;;;9.77;5.23;;;-0.20;99.90;;;;;;5101032;28;20138;-96
2022/12/14 13:07:59;;;;;;;8.73;5.43;;;0.40;1.00;;;;;;5101002;28;20160;-96
2022/12/14 13:10:36;;;;;;;8.33;4.87;;;0.50;1.00;;;;;;5101074;28;20134;-96
2022/12/14 13:13:23;;;;;;;7.87;5.27;;;0.40;1.00;;;;;;5095996;28;20166;-96
2022/12/14 13:15:53;;;;;;;11.17;5.63;;;0.60;99.90;;;;;;5099908;28;20205;-96
2022/12/14 13:18:30;;;;;;;8.07;6.00;;;0.40;99.90;;;;;;5100772;28;20177;-96
2022/12/14 13:21:31;;;;;;;13.20;5.60;;;0.40;1.00;;;;;;5100714;28;20131;-96
2022/12/14 13:23:58;;;;;;;7.83;5.43;;;0.50;99.90;;;;;;5100694;28;20136;-96
2022/12/14 13:26:54;;;;;;;7.00;5.00;;;0.40;99.90;;;;;;5100514;28;20150;-96
2022/12/14 13:29:42;;;;;;;9.53;5.10;;;0.40;1.00;;;;;;5100576;28;20143;-96
2022/12/14 13:33:01;;;;;;;11.30;5.63;;;0.50;1.00;;;;;;5100673;28;20210;-96